Time;durP1;ratioP1;P1;durP2;ratioP2;P2;SDS_P1;SDS_P2;PMS_P1;PMS_P2;Temp;Humidity;BMP_temperature;BMP_pressure;BME280_temperature;BME280_humidity;BME280_pressure;Samples;Min_cycle;Max_cycle;Signal;HPM_P1;HPM_P2
2022/01/06 00:02:10;;;;;;;0.00;0.00;;;;;;;;;;4975914;28;20101;-70
2022/01/06 00:04:36;;;;;;;0.00;0.00;;;;;;;;;;4995527;28;20116;-71
2022/01/06 00:07:02;;;;;;;28.85;1.30;;;;;;;;;;5002209;28;20054;-70
2022/01/06 00:09:28;;;;;;;0.10;0.10;;;;;;;;;;4994041;28;20025;-70
2022/01/06 00:12:00;;;;;;;0.20;0.20;;;;;;;;;;4988375;28;20074;-70
2022/01/06 00:14:58;;;;;;;0.20;0.20;;;;;;;;;;4986228;28;20196;-70
2022/01/06 00:25:41;;;;;;;2.55;1.10;;;;;;;;;;4992982;28;20045;-71
2022/01/06 00:28:07;;;;;;;0.10;0.10;;;;;;;;;;4990200;28;20089;-71
2022/01/06 00:30:33;;;;;;;0.10;0.10;;;;;;;;;;4996850;28;20037;-70
2022/01/06 00:32:59;;;;;;;0.20;0.20;;;;;;;;;;4991357;28;20030;-71
2022/01/06 00:35:24;;;;;;;0.00;0.00;;;;;;;;;;4986835;28;20072;-71
2022/01/06 00:37:50;;;;;;;1.88;0.95;;;;;;;;;;4995624;28;20496;-70
2022/01/06 00:40:16;;;;;;;0.90;0.35;;;;;;;;;;4979575;28;20088;-70
2022/01/06 00:42:43;;;;;;;2.53;0.60;;;;;;;;;;4987392;28;20057;-70
2022/01/06 00:45:09;;;;;;;0.13;0.13;;;;;;;;;;4994109;28;20050;-70
2022/01/06 00:47:35;;;;;;;0.52;0.52;;;;;;;;;;5000076;28;20030;-71
2022/01/06 00:50:01;;;;;;;0.10;0.10;;;;;;;;;;4987176;28;20062;-71
2022/01/06 00:52:27;;;;;;;3.15;1.15;;;;;;;;;;4996813;28;20128;-70
2022/01/06 00:54:53;;;;;;;0.10;0.10;;;;;;;;;;4992896;28;20533;-71
2022/01/06 00:57:19;;;;;;;0.32;0.32;;;;;;;;;;4978795;28;20037;-71
2022/01/06 00:59:45;;;;;;;1.27;0.75;;;;;;;;;;4986809;28;20105;-71
2022/01/06 01:02:11;;;;;;;0.47;0.47;;;;;;;;;;4989317;28;20027;-71
2022/01/06 01:04:37;;;;;;;0.57;0.47;;;;;;;;;;4996542;28;20576;-71
2022/01/06 01:07:03;;;;;;;0.00;0.00;;;;;;;;;;4986485;28;20025;-70
2022/01/06 01:09:30;;;;;;;0.10;0.10;;;;;;;;;;4988368;28;20145;-70
2022/01/06 01:11:56;;;;;;;0.00;0.00;;;;;;;;;;4974545;28;20035;-71
2022/01/06 01:14:28;;;;;;;0.10;0.10;;;;;;;;;;4987443;28;20030;-70
2022/01/06 01:16:57;;;;;;;0.20;0.20;;;;;;;;;;4993836;28;20449;-71
2022/01/06 01:19:24;;;;;;;0.00;0.00;;;;;;;;;;4987794;28;20034;-71
2022/01/06 01:21:50;;;;;;;0.10;0.10;;;;;;;;;;4995510;28;20064;-70
2022/01/06 01:24:16;;;;;;;0.10;0.10;;;;;;;;;;4976329;28;20107;-70
2022/01/06 01:26:42;;;;;;;2.10;1.75;;;;;;;;;;4975669;28;20054;-71
2022/01/06 01:29:13;;;;;;;0.10;0.10;;;;;;;;;;4991093;28;20034;-70
2022/01/06 01:31:44;;;;;;;0.10;0.10;;;;;;;;;;4984164;28;20034;-70
2022/01/06 01:34:12;;;;;;;;;;;;;;;;;;4980579;28;20026;-70
2022/01/06 01:36:38;;;;;;;0.10;0.10;;;;;;;;;;4987555;28;19960;-70
2022/01/06 01:39:04;;;;;;;1.08;0.32;;;;;;;;;;4983342;28;20135;-71
2022/01/06 01:41:30;;;;;;;0.10;0.10;;;;;;;;;;4991592;28;20117;-70
2022/01/06 01:43:56;;;;;;;0.00;0.00;;;;;;;;;;4985669;28;20286;-71
2022/01/06 01:46:28;;;;;;;0.10;0.10;;;;;;;;;;4988563;28;20086;-71
2022/01/06 01:49:14;;;;;;;0.10;0.10;;;;;;;;;;4982155;28;20500;-70
2022/01/06 01:51:56;;;;;;;0.50;0.50;;;;;;;;;;4991210;28;20044;-70
2022/01/06 01:54:22;;;;;;;0.00;0.00;;;;;;;;;;4979411;28;20031;-71
2022/01/06 01:56:48;;;;;;;2.60;0.60;;;;;;;;;;4989748;28;20365;-70
2022/01/06 01:59:14;;;;;;;0.10;0.10;;;;;;;;;;4984484;28;20033;-70
2022/01/06 02:01:42;;;;;;;0.10;0.10;;;;;;;;;;4979869;28;20029;-70
2022/01/06 02:04:08;;;;;;;0.15;0.15;;;;;;;;;;4992778;28;20105;-70
2022/01/06 02:06:34;;;;;;;0.00;0.00;;;;;;;;;;4980057;28;20467;-71
2022/01/06 02:08:59;;;;;;;0.10;0.10;;;;;;;;;;4982684;28;20022;-71
2022/01/06 02:11:26;;;;;;;0.10;0.10;;;;;;;;;;4982557;28;20055;-70
2022/01/06 02:13:58;;;;;;;0.10;0.10;;;;;;;;;;4985304;28;20113;-71
2022/01/06 02:16:25;;;;;;;0.00;0.00;;;;;;;;;;4974080;28;20122;-70
2022/01/06 02:18:52;;;;;;;4.00;1.05;;;;;;;;;;4977861;28;20031;-70
2022/01/06 02:21:18;;;;;;;0.25;0.25;;;;;;;;;;4991855;28;20377;-70
2022/01/06 02:23:44;;;;;;;0.30;0.30;;;;;;;;;;4978658;28;20505;-70
2022/01/06 02:26:10;;;;;;;0.30;0.30;;;;;;;;;;4998692;28;20030;-70
2022/01/06 02:28:36;;;;;;;0.15;0.15;;;;;;;;;;4987776;28;20039;-70
2022/01/06 02:31:03;;;;;;;0.00;0.00;;;;;;;;;;4985714;28;20034;-70
2022/01/06 02:33:29;;;;;;;0.10;0.10;;;;;;;;;;4985456;28;20103;-71
2022/01/06 02:35:55;;;;;;;0.03;0.03;;;;;;;;;;4985938;28;20185;-70
2022/01/06 02:38:22;;;;;;;0.05;0.05;;;;;;;;;;4985464;28;20026;-70
2022/01/06 02:40:48;;;;;;;0.10;0.10;;;;;;;;;;4988425;28;20030;-71
2022/01/06 02:43:17;;;;;;;0.00;0.00;;;;;;;;;;4989558;28;20029;-70
2022/01/06 02:45:43;;;;;;;0.10;0.10;;;;;;;;;;5001328;28;20046;-70
2022/01/06 02:48:09;;;;;;;0.00;0.00;;;;;;;;;;4991235;28;20152;-71
2022/01/06 02:50:37;;;;;;;0.00;0.00;;;;;;;;;;4981397;28;20027;-70
2022/01/06 02:53:04;;;;;;;0.00;0.00;;;;;;;;;;4979723;28;20134;-70
2022/01/06 02:55:30;;;;;;;0.00;0.00;;;;;;;;;;4986485;28;20030;-70
2022/01/06 02:57:56;;;;;;;0.00;0.00;;;;;;;;;;4981838;28;20037;-70
2022/01/06 03:00:22;;;;;;;0.00;0.00;;;;;;;;;;4993027;28;20441;-70
2022/01/06 03:02:48;;;;;;;0.00;0.00;;;;;;;;;;4996323;28;20018;-70
2022/01/06 03:05:15;;;;;;;0.10;0.10;;;;;;;;;;4986073;28;20034;-70
2022/01/06 03:07:41;;;;;;;0.10;0.10;;;;;;;;;;4986977;28;20420;-70
2022/01/06 03:10:10;;;;;;;0.10;0.10;;;;;;;;;;4987050;28;20039;-71
2022/01/06 03:12:39;;;;;;;0.05;0.05;;;;;;;;;;4983534;28;20096;-70
2022/01/06 03:15:07;;;;;;;0.05;0.05;;;;;;;;;;4986696;28;20027;-70
2022/01/06 03:17:33;;;;;;;0.38;0.38;;;;;;;;;;4984869;28;20051;-70
2022/01/06 03:19:59;;;;;;;0.10;0.10;;;;;;;;;;4987842;28;20059;-71
2022/01/06 03:22:25;;;;;;;0.10;0.10;;;;;;;;;;4989664;28;20515;-70
2022/01/06 03:24:57;;;;;;;18.77;1.15;;;;;;;;;;4989156;28;20073;-70
2022/01/06 03:27:23;;;;;;;0.10;0.10;;;;;;;;;;4975284;28;20050;-70
2022/01/06 03:29:50;;;;;;;0.00;0.00;;;;;;;;;;4988776;28;20061;-71
2022/01/06 03:32:16;;;;;;;0.10;0.10;;;;;;;;;;4990617;28;20109;-70
2022/01/06 03:34:42;;;;;;;0.00;0.00;;;;;;;;;;4992717;28;20121;-70
2022/01/06 03:37:21;;;;;;;0.03;0.03;;;;;;;;;;4987051;28;20110;-70
2022/01/06 03:39:47;;;;;;;0.00;0.00;;;;;;;;;;4992707;28;20030;-70
2022/01/06 03:42:13;;;;;;;0.00;0.00;;;;;;;;;;4986686;28;20108;-70
2022/01/06 03:44:39;;;;;;;0.00;0.00;;;;;;;;;;4968478;28;976756;-70
2022/01/06 03:47:05;;;;;;;0.08;0.08;;;;;;;;;;4980813;28;20038;-71
2022/01/06 03:49:31;;;;;;;0.00;0.00;;;;;;;;;;4993739;28;20030;-70
2022/01/06 03:51:58;;;;;;;0.00;0.00;;;;;;;;;;4977810;28;20165;-70
2022/01/06 03:54:24;;;;;;;0.10;0.10;;;;;;;;;;4969677;28;20038;-70
2022/01/06 03:56:50;;;;;;;0.10;0.10;;;;;;;;;;5001711;28;20400;-71
2022/01/06 03:59:17;;;;;;;0.05;0.05;;;;;;;;;;4995389;28;20512;-71
2022/01/06 04:01:43;;;;;;;0.10;0.10;;;;;;;;;;4980784;28;20076;-71
2022/01/06 04:04:09;;;;;;;0.65;0.55;;;;;;;;;;4977165;28;20014;-73
2022/01/06 04:06:35;;;;;;;0.20;0.20;;;;;;;;;;4982779;28;20019;-70
2022/01/06 04:09:01;;;;;;;0.10;0.10;;;;;;;;;;4982287;28;20504;-70
2022/01/06 04:11:27;;;;;;;0.00;0.00;;;;;;;;;;4985932;28;20049;-72
2022/01/06 04:13:53;;;;;;;0.00;0.00;;;;;;;;;;4979445;28;20038;-70
2022/01/06 04:16:19;;;;;;;0.00;0.00;;;;;;;;;;4983335;28;20034;-70
2022/01/06 04:18:45;;;;;;;0.10;0.10;;;;;;;;;;4981677;28;20519;-70
2022/01/06 04:21:11;;;;;;;0.10;0.10;;;;;;;;;;4993362;28;20030;-69
2022/01/06 04:23:40;;;;;;;0.10;0.10;;;;;;;;;;4987271;28;20035;-69
2022/01/06 04:26:06;;;;;;;0.00;0.00;;;;;;;;;;4979017;28;20097;-69
2022/01/06 04:28:32;;;;;;;0.10;0.10;;;;;;;;;;4982832;28;20035;-74
2022/01/06 04:30:58;;;;;;;0.00;0.00;;;;;;;;;;4999390;28;20120;-69
2022/01/06 04:33:24;;;;;;;0.00;0.00;;;;;;;;;;5002568;28;20034;-71
2022/01/06 04:35:50;;;;;;;0.00;0.00;;;;;;;;;;4981968;28;20613;-71
2022/01/06 04:38:16;;;;;;;0.10;0.10;;;;;;;;;;4986222;28;20023;-70
2022/01/06 04:40:41;;;;;;;0.00;0.00;;;;;;;;;;4993684;28;20460;-71
2022/01/06 04:43:07;;;;;;;0.30;0.30;;;;;;;;;;4984583;28;20030;-70
2022/01/06 04:45:34;;;;;;;0.65;0.65;;;;;;;;;;4990052;28;20074;-69
2022/01/06 04:47:59;;;;;;;0.10;0.10;;;;;;;;;;4980708;28;20034;-70
2022/01/06 04:50:25;;;;;;;0.10;0.10;;;;;;;;;;4994023;28;20044;-70
2022/01/06 04:52:51;;;;;;;0.20;0.20;;;;;;;;;;4980188;28;20165;-70
2022/01/06 04:55:17;;;;;;;0.10;0.10;;;;;;;;;;4998092;28;20451;-69
2022/01/06 04:57:43;;;;;;;0.08;0.08;;;;;;;;;;4982864;28;20560;-71
2022/01/06 05:00:09;;;;;;;0.10;0.10;;;;;;;;;;4981360;28;20377;-70
2022/01/06 05:02:35;;;;;;;0.10;0.10;;;;;;;;;;4986426;28;20085;-70
2022/01/06 05:05:01;;;;;;;0.00;0.00;;;;;;;;;;4984209;28;20038;-70
2022/01/06 05:07:27;;;;;;;0.00;0.00;;;;;;;;;;5001564;28;20037;-70
2022/01/06 05:09:53;;;;;;;0.00;0.00;;;;;;;;;;4976333;28;20496;-70
2022/01/06 05:12:19;;;;;;;0.00;0.00;;;;;;;;;;4986591;28;20026;-70
2022/01/06 05:14:45;;;;;;;0.10;0.10;;;;;;;;;;4990810;28;20536;-70
2022/01/06 05:17:11;;;;;;;0.10;0.10;;;;;;;;;;4987536;28;20133;-71
2022/01/06 05:19:37;;;;;;;0.00;0.00;;;;;;;;;;4988001;28;20308;-70
2022/01/06 05:22:03;;;;;;;0.00;0.00;;;;;;;;;;4989396;28;20061;-70
2022/01/06 05:24:29;;;;;;;0.10;0.10;;;;;;;;;;4977877;28;20046;-69
2022/01/06 05:26:56;;;;;;;0.00;0.00;;;;;;;;;;4977281;28;20085;-70
2022/01/06 05:29:23;;;;;;;0.10;0.10;;;;;;;;;;4984303;28;20089;-70
2022/01/06 05:31:49;;;;;;;0.03;0.03;;;;;;;;;;4987496;28;20058;-69
2022/01/06 05:34:15;;;;;;;0.03;0.03;;;;;;;;;;4986707;28;20164;-71
2022/01/06 05:36:41;;;;;;;0.10;0.10;;;;;;;;;;4988094;28;20084;-71
2022/01/06 05:39:07;;;;;;;0.10;0.10;;;;;;;;;;4982178;28;20516;-70
2022/01/06 05:41:34;;;;;;;0.10;0.10;;;;;;;;;;4987001;28;20073;-70
2022/01/06 05:44:00;;;;;;;0.15;0.15;;;;;;;;;;4985494;28;20038;-69
2022/01/06 05:46:26;;;;;;;0.10;0.10;;;;;;;;;;4987016;28;20058;-70
2022/01/06 05:48:52;;;;;;;0.08;0.08;;;;;;;;;;4985531;28;20038;-71
2022/01/06 05:51:18;;;;;;;0.10;0.10;;;;;;;;;;4986739;28;20037;-70
2022/01/06 05:53:43;;;;;;;0.10;0.10;;;;;;;;;;4986694;28;20433;-70
2022/01/06 05:56:09;;;;;;;0.00;0.00;;;;;;;;;;4986466;28;20030;-70
2022/01/06 05:58:36;;;;;;;0.00;0.00;;;;;;;;;;4981762;28;20086;-70
2022/01/06 06:01:02;;;;;;;0.10;0.10;;;;;;;;;;4985272;28;20130;-70
2022/01/06 06:03:28;;;;;;;0.00;0.00;;;;;;;;;;4985621;28;20034;-70
2022/01/06 06:05:55;;;;;;;0.10;0.10;;;;;;;;;;4985992;28;20027;-70
2022/01/06 06:08:21;;;;;;;0.10;0.10;;;;;;;;;;4985142;28;20037;-70
2022/01/06 06:10:47;;;;;;;0.10;0.10;;;;;;;;;;4986450;28;20042;-70
2022/01/06 06:13:13;;;;;;;0.10;0.10;;;;;;;;;;4986660;28;20034;-71
2022/01/06 06:15:39;;;;;;;0.10;0.10;;;;;;;;;;4986229;28;20042;-70
2022/01/06 06:18:05;;;;;;;0.10;0.10;;;;;;;;;;4980361;28;20374;-70
2022/01/06 06:20:32;;;;;;;0.10;0.10;;;;;;;;;;4986852;28;20030;-70
2022/01/06 06:22:58;;;;;;;0.10;0.10;;;;;;;;;;4983948;28;20038;-70
2022/01/06 06:25:24;;;;;;;0.15;0.15;;;;;;;;;;4986990;28;20180;-70
2022/01/06 06:27:50;;;;;;;0.10;0.10;;;;;;;;;;4985684;28;20030;-70
2022/01/06 06:30:17;;;;;;;0.10;0.10;;;;;;;;;;4982049;28;20038;-70
2022/01/06 06:32:43;;;;;;;0.10;0.10;;;;;;;;;;4982504;28;20239;-70
2022/01/06 06:35:09;;;;;;;0.15;0.15;;;;;;;;;;4980195;28;20033;-70
2022/01/06 06:37:35;;;;;;;0.28;0.28;;;;;;;;;;4989009;28;20039;-71
2022/01/06 06:40:08;;;;;;;0.30;0.30;;;;;;;;;;4991496;28;20022;-69
2022/01/06 06:42:34;;;;;;;0.20;0.20;;;;;;;;;;4999062;28;20033;-71
2022/01/06 06:45:00;;;;;;;0.00;0.00;;;;;;;;;;4989790;28;20405;-70
2022/01/06 06:47:26;;;;;;;0.52;0.45;;;;;;;;;;4978574;28;20030;-70
2022/01/06 06:49:55;;;;;;;0.00;0.00;;;;;;;;;;4981039;28;20041;-70
2022/01/06 06:52:22;;;;;;;0.10;0.10;;;;;;;;;;4996787;28;20041;-70
2022/01/06 06:54:48;;;;;;;0.00;0.00;;;;;;;;;;5008944;28;20068;-71
2022/01/06 06:57:14;;;;;;;0.32;0.25;;;;;;;;;;5003292;28;20026;-70
2022/01/06 06:59:40;;;;;;;0.00;0.00;;;;;;;;;;4979954;28;20504;-70
2022/01/06 07:02:06;;;;;;;1.00;0.57;;;;;;;;;;4991449;28;20026;-71
2022/01/06 07:04:32;;;;;;;0.00;0.00;;;;;;;;;;5000860;28;20046;-71
2022/01/06 07:06:58;;;;;;;0.10;0.10;;;;;;;;;;4988705;28;20260;-70
2022/01/06 07:09:24;;;;;;;0.10;0.10;;;;;;;;;;4981467;28;20159;-70
2022/01/06 07:11:50;;;;;;;0.03;0.03;;;;;;;;;;4980616;28;20412;-70
2022/01/06 07:14:16;;;;;;;0.00;0.00;;;;;;;;;;4994120;28;20444;-70
2022/01/06 07:16:41;;;;;;;1.20;0.82;;;;;;;;;;4987793;28;20031;-70
2022/01/06 07:19:07;;;;;;;0.03;0.03;;;;;;;;;;4982080;28;20034;-70
2022/01/06 07:21:40;;;;;;;0.10;0.10;;;;;;;;;;4991131;28;20030;-70
2022/01/06 07:24:06;;;;;;;0.00;0.00;;;;;;;;;;4992271;28;20035;-70
2022/01/06 07:26:32;;;;;;;0.03;0.03;;;;;;;;;;4998311;28;20029;-71
2022/01/06 07:28:58;;;;;;;2.35;0.90;;;;;;;;;;4981584;28;20031;-70
2022/01/06 07:31:27;;;;;;;1.75;1.45;;;;;;;;;;4988011;28;20038;-70
2022/01/06 07:33:53;;;;;;;0.10;0.10;;;;;;;;;;4992112;28;20030;-75
2022/01/06 07:36:19;;;;;;;1.23;0.50;;;;;;;;;;4988336;28;20069;-74
2022/01/06 07:38:45;;;;;;;1.90;1.80;;;;;;;;;;4989128;28;20073;-74
2022/01/06 07:41:11;;;;;;;0.15;0.15;;;;;;;;;;4976494;28;20038;-75
2022/01/06 07:43:37;;;;;;;0.55;0.55;;;;;;;;;;4990379;28;20550;-74
2022/01/06 07:48:57;;;;;;;0.43;0.43;;;;;;;;;;4990753;28;20048;-74
2022/01/06 07:51:27;;;;;;;0.40;0.40;;;;;;;;;;4999126;28;20026;-74
2022/01/06 07:53:53;;;;;;;0.10;0.10;;;;;;;;;;4985705;28;20485;-74
2022/01/06 07:56:19;;;;;;;0.10;0.10;;;;;;;;;;4986930;28;20491;-75
2022/01/06 07:58:46;;;;;;;0.60;0.55;;;;;;;;;;4980212;28;20027;-74
2022/01/06 08:01:12;;;;;;;0.20;0.20;;;;;;;;;;4996123;28;20121;-74
2022/01/06 08:03:38;;;;;;;1.17;1.05;;;;;;;;;;4987250;28;20050;-75
2022/01/06 08:06:04;;;;;;;0.00;0.00;;;;;;;;;;5000422;28;20057;-75
2022/01/06 08:08:30;;;;;;;1.65;0.95;;;;;;;;;;4980090;28;20501;-75
2022/01/06 08:11:02;;;;;;;0.10;0.10;;;;;;;;;;4984466;28;20031;-73
2022/01/06 08:13:28;;;;;;;2.20;1.27;;;;;;;;;;4975554;28;20073;-75
2022/01/06 08:15:54;;;;;;;0.20;0.20;;;;;;;;;;4978827;28;20014;-74
2022/01/06 08:18:20;;;;;;;2.97;1.33;;;;;;;;;;4983326;28;20049;-72
2022/01/06 08:20:46;;;;;;;0.20;0.20;;;;;;;;;;4984166;28;20027;-73
2022/01/06 08:23:15;;;;;;;0.00;0.00;;;;;;;;;;4980823;28;20088;-73
2022/01/06 08:25:41;;;;;;;0.10;0.10;;;;;;;;;;4980170;28;20557;-73
2022/01/06 08:28:07;;;;;;;0.15;0.15;;;;;;;;;;4984681;28;20118;-72
2022/01/06 08:30:33;;;;;;;0.00;0.00;;;;;;;;;;4988770;28;20038;-72
2022/01/06 08:32:59;;;;;;;0.22;0.22;;;;;;;;;;4980469;28;20385;-73
2022/01/06 08:35:25;;;;;;;0.10;0.10;;;;;;;;;;4985740;28;20104;-72
2022/01/06 08:37:51;;;;;;;0.00;0.00;;;;;;;;;;4995488;28;20023;-73
2022/01/06 08:40:17;;;;;;;0.13;0.13;;;;;;;;;;5002559;28;20440;-73
2022/01/06 08:42:45;;;;;;;0.30;0.30;;;;;;;;;;4990293;28;20033;-73
2022/01/06 08:45:11;;;;;;;0.00;0.00;;;;;;;;;;4978642;28;20056;-72
2022/01/06 08:47:37;;;;;;;0.00;0.00;;;;;;;;;;4980734;28;20031;-73
2022/01/06 08:50:03;;;;;;;0.30;0.30;;;;;;;;;;4988204;28;20495;-73
2022/01/06 08:52:29;;;;;;;0.10;0.10;;;;;;;;;;4982371;28;20069;-73
2022/01/06 08:54:56;;;;;;;0.10;0.10;;;;;;;;;;4989114;28;20060;-73
2022/01/06 08:57:22;;;;;;;0.38;0.38;;;;;;;;;;4995183;28;20026;-73
2022/01/06 08:59:48;;;;;;;0.38;0.38;;;;;;;;;;4998115;28;20050;-73
2022/01/06 09:02:14;;;;;;;0.40;0.40;;;;;;;;;;4991523;28;20069;-74
2022/01/06 09:04:40;;;;;;;0.05;0.05;;;;;;;;;;4978113;28;20045;-73
2022/01/06 09:07:06;;;;;;;0.30;0.30;;;;;;;;;;4990426;28;20026;-74
2022/01/06 09:09:32;;;;;;;0.10;0.10;;;;;;;;;;4986285;28;20091;-73
2022/01/06 09:11:58;;;;;;;0.03;0.03;;;;;;;;;;4994451;28;20088;-73
2022/01/06 09:14:24;;;;;;;1.55;1.45;;;;;;;;;;5009429;28;20029;-73
2022/01/06 09:16:53;;;;;;;2.90;1.85;;;;;;;;;;4980888;28;20381;-73
2022/01/06 09:19:19;;;;;;;0.75;0.55;;;;;;;;;;4983762;28;20050;-74
2022/01/06 09:21:45;;;;;;;0.10;0.10;;;;;;;;;;4980461;28;20033;-78
2022/01/06 09:24:10;;;;;;;0.38;0.38;;;;;;;;;;4995957;28;20193;-72
2022/01/06 09:26:37;;;;;;;0.10;0.10;;;;;;;;;;5003302;28;20038;-71
2022/01/06 09:29:04;;;;;;;0.10;0.10;;;;;;;;;;4991458;28;20052;-74
2022/01/06 09:31:30;;;;;;;0.00;0.00;;;;;;;;;;4990792;28;20026;-74
2022/01/06 09:33:55;;;;;;;0.10;0.10;;;;;;;;;;4987538;28;20030;-77
2022/01/06 09:36:21;;;;;;;0.75;0.60;;;;;;;;;;4982101;28;20021;-75
2022/01/06 09:38:47;;;;;;;4.53;1.55;;;;;;;;;;4977856;28;20035;-74
2022/01/06 09:41:14;;;;;;;0.10;0.10;;;;;;;;;;4978284;28;20025;-74
2022/01/06 09:43:41;;;;;;;0.00;0.00;;;;;;;;;;4988260;28;20500;-75
2022/01/06 09:46:08;;;;;;;0.10;0.10;;;;;;;;;;4988580;28;20054;-74
2022/01/06 09:48:35;;;;;;;0.10;0.10;;;;;;;;;;4984789;28;20041;-75
2022/01/06 09:51:01;;;;;;;27.60;1.23;;;;;;;;;;4985506;28;20068;-72
2022/01/06 09:53:33;;;;;;;0.20;0.20;;;;;;;;;;4984537;28;20094;-74
2022/01/06 09:55:59;;;;;;;0.10;0.10;;;;;;;;;;4985207;28;20199;-75
2022/01/06 09:58:27;;;;;;;0.00;0.00;;;;;;;;;;4987921;28;20038;-74
2022/01/06 10:00:55;;;;;;;0.10;0.10;;;;;;;;;;4991751;28;20018;-74
2022/01/06 10:03:21;;;;;;;0.17;0.17;;;;;;;;;;4984903;28;20030;-75
2022/01/06 10:05:49;;;;;;;0.10;0.10;;;;;;;;;;4984535;28;20021;-74
2022/01/06 10:08:26;;;;;;;0.10;0.10;;;;;;;;;;4986395;28;20038;-74
2022/01/06 10:10:52;;;;;;;0.20;0.20;;;;;;;;;;4984209;28;20048;-72
2022/01/06 10:13:19;;;;;;;1.08;0.65;;;;;;;;;;4986186;28;20030;-74
2022/01/06 10:15:46;;;;;;;0.13;0.13;;;;;;;;;;4986955;28;20081;-74
2022/01/06 10:18:16;;;;;;;0.05;0.05;;;;;;;;;;4981621;28;20026;-74
2022/01/06 10:20:42;;;;;;;0.82;0.52;;;;;;;;;;4987823;28;20033;-74
2022/01/06 10:23:13;;;;;;;0.10;0.10;;;;;;;;;;4982060;28;20452;-74
2022/01/06 10:25:44;;;;;;;0.63;0.63;;;;;;;;;;4996103;28;20396;-74
2022/01/06 10:28:10;;;;;;;;;;;;;;;;;;4996665;28;20103;-74
2022/01/06 10:30:36;;;;;;;0.30;0.30;;;;;;;;;;4985308;28;20403;-73
2022/01/06 10:33:02;;;;;;;0.08;0.08;;;;;;;;;;4988865;28;20385;-74
2022/01/06 10:35:28;;;;;;;0.10;0.10;;;;;;;;;;4994194;28;20041;-74
2022/01/06 10:37:54;;;;;;;0.38;0.38;;;;;;;;;;5001312;28;20033;-74
2022/01/06 10:40:25;;;;;;;0.00;0.00;;;;;;;;;;4989902;28;20034;-74
2022/01/06 10:42:52;;;;;;;0.10;0.10;;;;;;;;;;4985646;28;20046;-75
2022/01/06 10:45:23;;;;;;;0.03;0.03;;;;;;;;;;4988534;28;20045;-73
2022/01/06 10:47:51;;;;;;;0.47;0.32;;;;;;;;;;4989857;28;20049;-74
2022/01/06 10:50:17;;;;;;;0.00;0.00;;;;;;;;;;4991570;28;20030;-74
2022/01/06 10:52:53;;;;;;;0.10;0.10;;;;;;;;;;4999122;28;20054;-73
2022/01/06 10:55:20;;;;;;;0.75;0.75;;;;;;;;;;4988255;28;20026;-74
2022/01/06 10:57:55;;;;;;;3.08;0.85;;;;;;;;;;4994717;28;20028;-73
2022/01/06 11:00:25;;;;;;;0.08;0.08;;;;;;;;;;4992159;28;20034;-72
2022/01/06 11:02:51;;;;;;;0.22;0.22;;;;;;;;;;4989025;28;20042;-72
2022/01/06 11:05:17;;;;;;;0.30;0.30;;;;;;;;;;4988750;28;20037;-73
2022/01/06 11:07:43;;;;;;;0.00;0.00;;;;;;;;;;4994081;28;20373;-73
2022/01/06 11:10:19;;;;;;;0.00;0.00;;;;;;;;;;4980382;28;20033;-73
2022/01/06 11:12:45;;;;;;;1.35;1.02;;;;;;;;;;4982065;28;20049;-74
2022/01/06 11:15:11;;;;;;;0.25;0.25;;;;;;;;;;4984784;28;20381;-73
2022/01/06 11:17:38;;;;;;;0.10;0.10;;;;;;;;;;4976288;28;20027;-73
2022/01/06 11:20:04;;;;;;;0.00;0.00;;;;;;;;;;4984742;28;20033;-74
2022/01/06 11:22:30;;;;;;;0.00;0.00;;;;;;;;;;4979611;28;20057;-74
2022/01/06 11:24:59;;;;;;;0.00;0.00;;;;;;;;;;4981435;28;20026;-73
2022/01/06 11:27:38;;;;;;;0.00;0.00;;;;;;;;;;4976567;28;20041;-74
2022/01/06 11:30:11;;;;;;;0.00;0.00;;;;;;;;;;4980229;28;20054;-73
2022/01/06 11:32:38;;;;;;;0.05;0.05;;;;;;;;;;4990323;28;20193;-73
2022/01/06 11:35:11;;;;;;;0.10;0.10;;;;;;;;;;4980837;28;20486;-73
2022/01/06 11:37:40;;;;;;;0.00;0.00;;;;;;;;;;4977095;28;20185;-73
2022/01/06 11:40:06;;;;;;;0.55;0.55;;;;;;;;;;4984690;28;20130;-73
2022/01/06 11:42:32;;;;;;;0.00;0.00;;;;;;;;;;4973840;28;20039;-73
2022/01/06 11:44:58;;;;;;;0.35;0.35;;;;;;;;;;4980246;28;20099;-73
2022/01/06 11:47:29;;;;;;;0.20;0.20;;;;;;;;;;4985982;28;20060;-73
2022/01/06 11:50:05;;;;;;;0.32;0.32;;;;;;;;;;4991998;28;20066;-73
2022/01/06 11:52:31;;;;;;;1.17;0.65;;;;;;;;;;4977563;28;20032;-75
2022/01/06 11:54:57;;;;;;;0.10;0.10;;;;;;;;;;4994006;28;20026;-75
2022/01/06 11:57:34;;;;;;;0.03;0.03;;;;;;;;;;4981895;28;20441;-75
2022/01/06 12:00:01;;;;;;;0.00;0.00;;;;;;;;;;4983981;28;20038;-75
2022/01/06 12:02:27;;;;;;;0.32;0.32;;;;;;;;;;4989078;28;20040;-75
2022/01/06 12:04:56;;;;;;;0.00;0.00;;;;;;;;;;5004086;28;20042;-75
2022/01/06 12:07:23;;;;;;;0.00;0.00;;;;;;;;;;4999659;28;20025;-75
2022/01/06 12:09:55;;;;;;;0.10;0.10;;;;;;;;;;5000866;28;20038;-75
2022/01/06 12:12:31;;;;;;;0.00;0.00;;;;;;;;;;4988162;28;20477;-75
2022/01/06 12:15:08;;;;;;;0.77;0.30;;;;;;;;;;4990801;28;20041;-75
2022/01/06 12:17:34;;;;;;;0.22;0.22;;;;;;;;;;4988990;28;20034;-75
2022/01/06 12:20:00;;;;;;;0.10;0.10;;;;;;;;;;4997403;28;20034;-75
2022/01/06 12:22:27;;;;;;;0.00;0.00;;;;;;;;;;4989034;28;20022;-75
2022/01/06 12:25:00;;;;;;;0.00;0.00;;;;;;;;;;4988134;28;20374;-75
2022/01/06 12:27:26;;;;;;;0.35;0.10;;;;;;;;;;4996890;28;20026;-75
2022/01/06 12:29:54;;;;;;;0.00;0.00;;;;;;;;;;4999616;28;20476;-75
2022/01/06 12:32:20;;;;;;;0.35;0.35;;;;;;;;;;5003521;28;20049;-75
2022/01/06 12:34:53;;;;;;;0.00;0.00;;;;;;;;;;4988443;28;20034;-75
2022/01/06 12:37:29;;;;;;;0.00;0.00;;;;;;;;;;4981461;28;20019;-75
2022/01/06 12:39:56;;;;;;;0.00;0.00;;;;;;;;;;4988561;28;20392;-75
2022/01/06 12:42:22;;;;;;;0.00;0.00;;;;;;;;;;4985522;28;20046;-75
2022/01/06 12:44:48;;;;;;;0.03;0.03;;;;;;;;;;4982341;28;20062;-75
2022/01/06 12:47:14;;;;;;;5.00;0.73;;;;;;;;;;5001250;28;20085;-75
2022/01/06 12:49:40;;;;;;;0.10;0.10;;;;;;;;;;5000551;28;20038;-75
2022/01/06 12:52:06;;;;;;;0.22;0.22;;;;;;;;;;4989201;28;20079;-75
2022/01/06 12:54:37;;;;;;;0.00;0.00;;;;;;;;;;4983005;28;20023;-75
2022/01/06 12:57:06;;;;;;;0.10;0.10;;;;;;;;;;4977444;28;20011;-75
2022/01/06 12:59:33;;;;;;;0.30;0.30;;;;;;;;;;4992524;28;20026;-75
2022/01/06 13:02:00;;;;;;;0.00;0.00;;;;;;;;;;4990176;28;20139;-75
2022/01/06 13:04:34;;;;;;;0.15;0.15;;;;;;;;;;4989329;28;20033;-75
2022/01/06 13:07:01;;;;;;;0.03;0.03;;;;;;;;;;4988743;28;20030;-75
2022/01/06 13:09:31;;;;;;;0.00;0.00;;;;;;;;;;4976876;28;20061;-75
2022/01/06 13:11:58;;;;;;;0.05;0.05;;;;;;;;;;4983477;28;20698;-75
2022/01/06 13:14:30;;;;;;;0.10;0.10;;;;;;;;;;4984708;28;20031;-75
2022/01/06 13:17:06;;;;;;;0.00;0.00;;;;;;;;;;4991422;28;20022;-75
2022/01/06 13:19:33;;;;;;;0.20;0.20;;;;;;;;;;4983375;28;20010;-75
2022/01/06 13:22:03;;;;;;;0.00;0.00;;;;;;;;;;4982488;28;20105;-75
2022/01/06 13:24:30;;;;;;;0.00;0.00;;;;;;;;;;4985095;28;20049;-75
2022/01/06 13:26:59;;;;;;;0.00;0.00;;;;;;;;;;4981744;28;20429;-75
2022/01/06 13:29:27;;;;;;;0.00;0.00;;;;;;;;;;4978449;28;20026;-75
2022/01/06 13:32:23;;;;;;;0.08;0.08;;;;;;;;;;4981670;28;20026;-74
2022/01/06 13:35:00;;;;;;;0.00;0.00;;;;;;;;;;4967338;28;20100;-75
2022/01/06 13:37:28;;;;;;;0.00;0.00;;;;;;;;;;4980665;28;20033;-75
2022/01/06 13:39:59;;;;;;;0.52;0.43;;;;;;;;;;4981910;28;20034;-75
2022/01/06 13:42:29;;;;;;;0.00;0.00;;;;;;;;;;4981159;28;20125;-75
2022/01/06 13:45:01;;;;;;;0.00;0.00;;;;;;;;;;4987899;28;20037;-75
2022/01/06 13:53:13;;;;;;;0.00;0.00;;;;;;;;;;4986864;28;20044;-75
2022/01/06 13:55:39;;;;;;;0.00;0.00;;;;;;;;;;4982569;28;20031;-75
2022/01/06 13:58:05;;;;;;;0.17;0.17;;;;;;;;;;4996546;28;20049;-75
2022/01/06 14:00:31;;;;;;;0.00;0.00;;;;;;;;;;4996982;28;20022;-75
2022/01/06 14:02:57;;;;;;;0.00;0.00;;;;;;;;;;4990956;28;20504;-75
2022/01/06 14:05:24;;;;;;;0.10;0.10;;;;;;;;;;4996261;28;20397;-73
2022/01/06 14:07:50;;;;;;;1.13;1.10;;;;;;;;;;4986704;28;20037;-75
2022/01/06 14:10:16;;;;;;;0.00;0.00;;;;;;;;;;4986987;28;20038;-75
2022/01/06 14:12:43;;;;;;;0.00;0.00;;;;;;;;;;4996683;28;20708;-75
2022/01/06 14:15:10;;;;;;;0.08;0.08;;;;;;;;;;4981695;28;20026;-76
2022/01/06 14:17:36;;;;;;;0.10;0.10;;;;;;;;;;4983578;28;20035;-75
2022/01/06 14:20:02;;;;;;;2.10;1.10;;;;;;;;;;4985606;28;20437;-75
2022/01/06 14:22:28;;;;;;;0.00;0.00;;;;;;;;;;4985342;28;20038;-75
2022/01/06 14:24:54;;;;;;;0.00;0.00;;;;;;;;;;4983504;28;20441;-75
2022/01/06 14:27:20;;;;;;;0.30;0.30;;;;;;;;;;4994300;28;20033;-75
2022/01/06 14:29:46;;;;;;;0.00;0.00;;;;;;;;;;4984363;28;20109;-75
2022/01/06 14:32:12;;;;;;;0.00;0.00;;;;;;;;;;4992931;28;20039;-75
2022/01/06 14:34:38;;;;;;;0.93;0.68;;;;;;;;;;4991183;28;20022;-75
2022/01/06 14:37:04;;;;;;;0.10;0.10;;;;;;;;;;4998835;28;20049;-74
2022/01/06 14:39:29;;;;;;;0.20;0.20;;;;;;;;;;4996756;28;20448;-75
2022/01/06 14:41:55;;;;;;;0.47;0.47;;;;;;;;;;4991388;28;20381;-75
2022/01/06 14:44:21;;;;;;;0.03;0.03;;;;;;;;;;5000316;28;20034;-75
2022/01/06 14:46:48;;;;;;;0.00;0.00;;;;;;;;;;4992067;28;20046;-75
2022/01/06 14:49:14;;;;;;;0.00;0.00;;;;;;;;;;4994100;28;20023;-75
2022/01/06 14:51:40;;;;;;;2.00;1.05;;;;;;;;;;5007420;28;20033;-75
2022/01/06 14:54:06;;;;;;;0.03;0.03;;;;;;;;;;4988604;28;20026;-75
2022/01/06 14:56:32;;;;;;;0.38;0.38;;;;;;;;;;4991070;28;20061;-74
2022/01/06 14:58:58;;;;;;;0.03;0.03;;;;;;;;;;5000673;28;20060;-74
2022/01/06 15:01:24;;;;;;;0.00;0.00;;;;;;;;;;4996154;28;20465;-75